createdAt,value
2023-03-13T00:01:22.249Z,83.66
2023-03-13T00:06:18.892Z,83.69
2023-03-13T00:11:15.853Z,83.61
2023-03-13T00:16:13.125Z,83.62
2023-03-13T00:21:09.773Z,83.67
2023-03-13T00:26:08.940Z,83.71
2023-03-13T00:31:07.290Z,83.36
2023-03-13T00:36:06.366Z,83.27
2023-03-13T00:41:04.931Z,83.36
2023-03-13T00:46:02.044Z,83.01
2023-03-13T00:50:59.012Z,83.28
2023-03-13T00:55:59.092Z,83.18
2023-03-13T01:00:55.750Z,83.63
2023-03-13T01:05:56.559Z,83.70
2023-03-13T01:11:05.691Z,83.53
2023-03-13T01:16:04.385Z,83.40
2023-03-13T01:21:01.332Z,83.52
2023-03-13T01:25:57.818Z,83.22
2023-03-13T01:30:54.402Z,83.52
2023-03-13T01:35:51.150Z,83.57
2023-03-13T01:40:49.297Z,83.37
2023-03-13T01:45:54.655Z,82.87
2023-03-13T01:50:51.111Z,83.17
2023-03-13T01:55:47.747Z,83.12
2023-03-13T02:00:45.169Z,82.62
2023-03-13T02:05:42.758Z,82.62
2023-03-13T02:10:43.216Z,82.28
2023-03-13T02:15:40.834Z,82.09
2023-03-13T02:20:39.843Z,81.97
2023-03-13T02:25:51.338Z,82.20
2023-03-13T02:30:49.783Z,82.11
2023-03-13T02:35:46.746Z,81.75
2023-03-13T02:40:45.415Z,81.79
2023-03-13T02:45:41.923Z,81.85
2023-03-13T02:50:38.531Z,81.66
2023-03-13T02:55:41.544Z,81.92
2023-03-13T03:00:38.157Z,81.83
2023-03-13T03:05:34.686Z,81.64
2023-03-13T03:10:36.221Z,81.74
2023-03-13T03:15:32.687Z,81.70
2023-03-13T03:20:29.100Z,81.70
2023-03-13T03:25:25.577Z,81.93
2023-03-13T03:30:22.043Z,81.62
2023-03-13T03:35:18.542Z,81.94
2023-03-13T03:40:15.069Z,81.93
2023-03-13T03:45:11.566Z,81.63
2023-03-13T03:50:10.934Z,81.99
2023-03-13T03:55:07.654Z,81.76
2023-03-13T04:00:06.101Z,82.03
2023-03-13T04:05:02.530Z,81.89
2023-03-13T04:09:59.162Z,81.78
2023-03-13T04:14:55.607Z,82.11
2023-03-13T04:19:52.109Z,81.94
2023-03-13T04:24:50.646Z,81.86
2023-03-13T04:29:47.113Z,82.06
2023-03-13T04:34:43.543Z,82.00
2023-03-13T04:39:41.292Z,82.29
2023-03-13T04:44:37.745Z,82.24
2023-03-13T04:49:35.028Z,82.00
2023-03-13T04:54:31.501Z,82.27
2023-03-13T04:59:28.019Z,81.90
2023-03-13T05:04:24.500Z,82.10
2023-03-13T05:09:22.091Z,82.00
2023-03-13T05:14:19.438Z,81.98
2023-03-13T05:19:15.872Z,81.97
2023-03-13T05:24:12.309Z,82.06
2023-03-13T05:29:08.791Z,82.47
2023-03-13T05:34:05.271Z,82.19
2023-03-13T05:39:01.784Z,82.33
2023-03-13T05:43:58.222Z,82.52
2023-03-13T05:48:54.729Z,82.44
2023-03-13T05:53:51.149Z,82.83
2023-03-13T05:58:47.625Z,83.00
2023-03-13T06:03:44.146Z,83.41
2023-03-13T06:08:40.853Z,84.05
2023-03-13T06:13:37.356Z,84.19
2023-03-13T06:18:33.850Z,84.44
2023-03-13T06:23:30.290Z,84.44
2023-03-13T06:28:26.754Z,84.80
2023-03-13T06:33:23.202Z,85.34
2023-03-13T06:38:19.692Z,85.61
2023-03-13T06:43:16.159Z,85.76
2023-03-13T06:48:12.663Z,85.68
2023-03-13T06:53:16.022Z,85.83
2023-03-13T06:58:25.373Z,86.21
2023-03-13T07:03:27.890Z,86.37
2023-03-13T07:08:25.836Z,86.30
2023-03-13T07:13:22.360Z,86.27
2023-03-13T07:18:18.841Z,86.70
2023-03-13T07:23:15.378Z,86.60
2023-03-13T07:28:11.948Z,86.86
2023-03-13T07:33:08.613Z,87.10
2023-03-13T07:38:05.159Z,87.46
2023-03-13T07:43:01.685Z,87.44
2023-03-13T07:47:58.231Z,87.46
2023-03-13T07:52:54.683Z,87.59
2023-03-13T07:57:51.390Z,87.81
2023-03-13T08:02:47.875Z,87.99
2023-03-13T08:07:47.417Z,88.28
2023-03-13T08:12:43.999Z,88.26
2023-03-13T08:17:40.494Z,88.64
2023-03-13T08:22:38.109Z,88.73
2023-03-13T08:27:34.644Z,89.06
2023-03-13T08:32:35.055Z,89.11
2023-03-13T08:37:31.564Z,89.22
2023-03-13T08:42:30.040Z,89.38
2023-03-13T08:48:18.244Z,89.21
2023-03-13T08:52:50.808Z,89.21
2023-03-13T08:57:53.421Z,89.51
2023-03-13T09:02:56.006Z,89.43
2023-03-13T09:07:53.913Z,89.73
2023-03-13T09:12:51.484Z,90.04
2023-03-13T09:17:48.891Z,89.62
2023-03-13T09:22:46.175Z,90.14
2023-03-13T09:27:49.122Z,90.11
2023-03-13T09:32:51.844Z,90.30
2023-03-13T09:43:01.868Z,90.08
2023-03-13T09:48:03.129Z,89.93
2023-03-13T09:53:13.124Z,90.05
2023-03-13T09:58:19.872Z,90.14
2023-03-13T10:03:29.538Z,90.08
2023-03-13T10:08:57.853Z,90.28
2023-03-13T10:14:22.270Z,90.13
2023-03-13T10:19:28.062Z,90.19
2023-03-13T10:24:47.757Z,90.26
2023-03-13T10:29:47.677Z,90.51
2023-03-13T10:34:55.962Z,90.43
2023-03-13T10:40:05.588Z,90.51
2023-03-13T10:45:05.404Z,90.36
2023-03-13T10:50:02.920Z,90.59
2023-03-13T10:55:09.042Z,90.54
2023-03-13T11:00:30.832Z,90.30
2023-03-13T11:05:36.412Z,90.46
2023-03-13T11:10:40.376Z,90.01
2023-03-13T11:15:57.665Z,89.90
2023-03-13T11:21:12.161Z,89.65
2023-03-13T11:26:28.783Z,89.27
2023-03-13T11:31:44.873Z,89.16
2023-03-13T11:37:26.182Z,88.87
2023-03-13T11:48:46.128Z,88.08
2023-03-13T11:54:20.553Z,87.13
2023-03-13T11:59:16.997Z,86.95
2023-03-13T12:04:20.624Z,86.56
2023-03-13T12:09:21.884Z,86.27
2023-03-13T12:14:33.481Z,85.81
2023-03-13T12:19:34.547Z,85.67
2023-03-13T12:24:54.950Z,85.52
2023-03-13T12:30:06.175Z,84.81
2023-03-13T12:35:20.310Z,84.66
2023-03-13T12:40:47.684Z,84.19
2023-03-13T12:45:59.502Z,83.29
2023-03-13T12:51:20.779Z,83.18
2023-03-13T12:56:33.370Z,81.68
2023-03-13T13:01:33.781Z,80.71
2023-03-13T13:06:50.316Z,78.54
2023-03-13T13:11:57.638Z,77.57
2023-03-13T13:17:16.762Z,77.33
2023-03-13T13:22:37.893Z,75.64
2023-03-13T13:27:37.149Z,75.39
2023-03-13T13:32:38.876Z,74.80
2023-03-13T13:37:35.647Z,74.04
2023-03-13T13:42:41.967Z,72.68
2023-03-13T13:47:38.511Z,72.49
2023-03-13T13:52:45.448Z,71.34
2023-03-13T13:57:59.175Z,71.41
2023-03-13T14:03:20.945Z,70.43
2023-03-13T14:08:23.929Z,69.99
2023-03-13T14:13:31.244Z,69.65
2023-03-13T14:18:35.234Z,69.04
2023-03-13T14:23:40.070Z,68.44
2023-03-13T14:28:41.172Z,67.65
2023-03-13T14:33:40.659Z,67.47
2023-03-13T14:38:38.072Z,67.52
2023-03-13T14:43:56.053Z,66.28
2023-03-13T14:48:57.049Z,66.04
2023-03-13T14:54:04.618Z,65.71
2023-03-13T14:59:16.644Z,65.86
2023-03-13T15:04:19.753Z,65.63
2023-03-13T15:09:22.555Z,65.14
2023-03-13T15:14:42.911Z,64.96
2023-03-13T15:19:43.071Z,64.59
2023-03-13T15:24:56.295Z,63.94
2023-03-13T15:30:02.036Z,63.99
2023-03-13T15:34:58.998Z,63.81
2023-03-13T15:39:57.440Z,63.90
2023-03-13T15:44:56.324Z,63.40
2023-03-13T15:49:53.291Z,63.65
2023-03-13T15:54:55.271Z,63.45
2023-03-13T15:59:53.408Z,63.58
2023-03-13T16:04:50.770Z,63.14
2023-03-13T16:09:48.315Z,63.66
2023-03-13T16:14:45.329Z,63.25
2023-03-13T16:19:45.372Z,63.11
2023-03-13T16:24:42.353Z,63.00
2023-03-13T16:29:39.480Z,62.58
2023-03-13T16:34:36.015Z,62.24
2023-03-13T16:39:32.658Z,62.36
2023-03-13T16:44:29.383Z,62.30
2023-03-13T16:49:25.963Z,62.33
2023-03-13T16:54:22.623Z,62.38
2023-03-13T16:59:19.710Z,62.41
2023-03-13T17:04:17.540Z,62.39
2023-03-13T17:09:18.790Z,62.37
2023-03-13T17:14:15.338Z,62.45
2023-03-13T17:19:18.361Z,63.17
2023-03-13T17:24:14.826Z,62.56
2023-03-13T17:29:16.453Z,63.29
2023-03-13T17:34:15.398Z,62.90
2023-03-13T17:39:13.909Z,62.70
2023-03-13T17:44:12.972Z,62.97
2023-03-13T17:49:16.524Z,62.57
2023-03-13T17:54:15.799Z,62.95
2023-03-13T17:59:18.754Z,62.81
2023-03-13T18:04:15.762Z,62.92
2023-03-13T18:09:21.029Z,62.48
2023-03-13T18:14:18.186Z,62.36
2023-03-13T18:19:22.471Z,61.29
2023-03-13T18:24:26.947Z,61.00
2023-03-13T18:29:29.320Z,60.30
2023-03-13T18:34:28.043Z,59.89
2023-03-13T18:39:50.944Z,59.47
2023-03-13T18:44:59.212Z,59.40
2023-03-13T18:49:55.968Z,59.32
2023-03-13T18:54:54.938Z,59.33
2023-03-13T18:59:54.588Z,58.61
2023-03-13T19:04:51.358Z,59.03
2023-03-13T19:10:19.593Z,58.92
2023-03-13T19:15:35.721Z,59.02
2023-03-13T19:27:16.043Z,58.81
2023-03-13T19:32:19.283Z,58.84
2023-03-13T19:37:18.754Z,58.65
2023-03-13T19:42:15.314Z,58.88
2023-03-13T19:47:13.519Z,59.63
2023-03-13T19:52:30.190Z,60.28
2023-03-13T19:57:38.452Z,59.51
2023-03-13T20:09:57.909Z,59.48
2023-03-13T20:15:13.971Z,59.69
2023-03-13T20:20:17.331Z,59.87
2023-03-13T20:25:28.478Z,60.18
2023-03-13T20:30:57.614Z,60.24
2023-03-13T20:36:34.033Z,60.01
2023-03-13T20:41:56.248Z,60.27
2023-03-13T20:47:05.328Z,60.38
2023-03-13T20:53:01.904Z,60.71
2023-03-13T20:58:16.304Z,60.77
2023-03-13T21:03:22.592Z,60.90
2023-03-13T21:08:19.055Z,61.28
2023-03-13T21:13:15.517Z,61.17
2023-03-13T21:18:12.025Z,61.45
2023-03-13T21:23:08.526Z,61.58
2023-03-13T21:28:07.205Z,61.63
2023-03-13T21:33:03.983Z,61.80
2023-03-13T21:38:00.460Z,61.83
2023-03-13T21:42:56.984Z,61.93
2023-03-13T21:47:56.263Z,62.60
2023-03-13T21:52:52.702Z,62.56
2023-03-13T21:57:49.176Z,62.66
2023-03-13T22:02:45.804Z,63.43
2023-03-13T22:07:42.434Z,63.80
2023-03-13T22:12:38.845Z,64.16
2023-03-13T22:17:35.386Z,64.29
2023-03-13T22:22:31.925Z,64.60
2023-03-13T22:27:28.453Z,64.42
2023-03-13T22:32:26.380Z,64.82
2023-03-13T22:37:26.538Z,65.01
2023-03-13T22:42:24.226Z,65.47
2023-03-13T22:47:20.865Z,65.53
2023-03-13T22:52:17.392Z,65.45
2023-03-13T22:57:13.846Z,66.08
2023-03-13T23:02:10.355Z,66.27
2023-03-13T23:07:06.787Z,66.20
2023-03-13T23:12:03.281Z,66.60
2023-03-13T23:17:00.147Z,66.40
2023-03-13T23:21:58.636Z,66.67
2023-03-13T23:26:55.103Z,66.67
2023-03-13T23:31:52.697Z,67.15
2023-03-13T23:36:49.688Z,67.47
2023-03-13T23:41:46.227Z,67.45
2023-03-13T23:46:42.728Z,67.66
2023-03-13T23:51:39.425Z,67.60
2023-03-13T23:56:35.886Z,67.55
